Humidity-temperature Sensor

Selected Measurement Type: Relative Humidity

 
Relative Humidity [%]     6 entries per hour
Showing data from 8/7/2020 (00:00:00 Z) to 7/31/2020 (00:01:00 Z)
Previous Next [ Day | 3-Days | 7-Days ]
First Last
Prev [ Day | 3-Days | 7-Days ] Next
First Last

Start Time:     :
End Time:     :     
Time (in GMT) :00 :50 :40 :30 :20 :10
Previous Next [ Day | 3-Days | 7-Days ]
First Last
Prev [ Day | 3-Days | 7-Days ] Next
First Last


123 => good data
MM => data is determined as missing
-- => data not received/configured
Back to Top Back to Top
8/7/2020 00:00 to 23:10 75.01 74.29 74.22 75.87 74.99 74.27
8/6/2020 23:00 to 22:10 76.99 76.39 76.34 78.86 81.89 82.85
8/6/2020 22:00 to 21:10 83.14 82.72 77.90 75.93 75.74 75.01
8/6/2020 21:00 to 20:10 73.29 72.21 70.36 69.53 69.07 70.28
8/6/2020 20:00 to 19:10 72.25 76.14 78.84 78.65 78.80 80.81
8/6/2020 19:00 to 18:10 80.73 80.54 80.48 80.65 80.56 81.54
8/6/2020 18:00 to 17:10 81.54 81.08 77.72 80.56 75.30 77.34
8/6/2020 17:00 to 16:10 73.70 77.61 79.34 74.33 75.78 73.97
8/6/2020 16:00 to 15:10 72.15 75.74 76.84 76.39 75.70 76.03
8/6/2020 15:00 to 14:10 77.15 78.09 83.58 86.17 86.30 80.83
8/6/2020 14:00 to 13:10 79.50 78.48 77.49 75.43 72.00 71.58
8/6/2020 13:00 to 12:10 72.33 70.67 67.49 70.90 77.24 80.44
8/6/2020 12:00 to 11:10 82.25 79.57 78.01 76.43 71.98 72.00
8/6/2020 11:00 to 10:10 72.25 74.39 76.05 76.66 75.35 73.77
8/6/2020 10:00 to 9:10 75.91 76.12 76.43 75.28 77.59 78.01
8/6/2020 09:00 to 8:10 75.85 79.13 78.61 77.30 77.74 78.09
8/6/2020 08:00 to 7:10 77.59 77.15 77.09 76.93 76.57 77.20
8/6/2020 07:00 to 6:10 77.84 78.51 78.73 79.36 78.46 77.26
8/6/2020 06:00 to 5:10 78.36 78.17 76.88 77.40 79.50 78.69
8/6/2020 05:00 to 4:10 78.59 78.11 79.73 78.73 78.03 79.07
8/6/2020 04:00 to 3:10 79.88 78.84 80.38 80.54 80.67 79.98
8/6/2020 03:00 to 2:10 80.69 80.65 80.58 80.38 79.94 79.90
8/6/2020 02:00 to 1:10 81.27 81.10 79.81 79.77 79.73 79.52
8/6/2020 01:00 to 0:10 79.98 79.81 80.27 80.42 81.14 80.06
8/6/2020 00:00 to 23:10 80.40 80.25 80.00 79.67 78.98 79.71
8/5/2020 23:00 to 22:10 80.36 80.67 80.79 81.93 80.44 81.39
8/5/2020 22:00 to 21:10 80.60 79.57 80.60 81.35 80.85 80.38
8/5/2020 21:00 to 20:10 81.00 81.71 80.29 80.17 80.67 80.40
8/5/2020 20:00 to 19:10 80.08 79.19 81.00 80.71 80.73 81.31
8/5/2020 19:00 to 18:10 81.73 82.45 81.87 81.83 80.67 79.32
8/5/2020 18:00 to 17:10 78.19 77.82 76.53 74.99 77.92 79.13
8/5/2020 17:00 to 16:10 77.67 78.32 79.71 82.20 82.95 85.63
8/5/2020 16:00 to 15:10 84.35 85.53 87.59 86.78 86.61 86.76
8/5/2020 15:00 to 14:10 86.76 86.26 86.65 87.19 86.82 85.88
8/5/2020 14:00 to 13:10 85.22 81.96 79.02 80.15 79.84 83.66
8/5/2020 13:00 to 12:10 83.62 82.66 80.15 79.23 78.13 79.73
8/5/2020 12:00 to 11:10 82.52 82.41 81.41 81.79 82.75 83.70
8/5/2020 11:00 to 10:10 83.95 83.85 83.87 82.60 82.41 82.25
8/5/2020 10:00 to 9:10 81.31 78.98 77.63 80.38 81.54 81.08
8/5/2020 09:00 to 8:10 81.19 82.23 82.77 78.63 80.38 83.24
8/5/2020 08:00 to 7:10 84.32 86.34 85.72 84.93 86.03 86.67
8/5/2020 07:00 to 6:10 86.28 86.32 87.55 85.01 85.14 83.97
8/5/2020 06:00 to 5:10 83.41 83.56 81.37 79.25 83.64 84.72
8/5/2020 05:00 to 4:10 82.58 80.52 80.00 76.90 77.03 79.98
8/5/2020 04:00 to 3:10 81.96 82.23 84.05 83.41 83.53 83.74
8/5/2020 03:00 to 2:10 84.53 83.41 83.93 85.14 85.36 84.47
8/5/2020 02:00 to 1:10 84.45 85.43 85.18 84.03 83.89 84.39
8/5/2020 01:00 to 0:10 83.89 83.91 83.81 84.55 83.43 82.81
8/5/2020 00:00 to 23:10 82.41 81.98 81.19 79.73 79.23 78.61
8/4/2020 23:00 to 22:10 78.13 77.94 77.63 76.74 76.61 77.67
8/4/2020 22:00 to 21:10 78.51 77.38 76.84 76.95 77.72 77.59
8/4/2020 21:00 to 20:10 77.82 78.55 79.30 79.34 80.23 79.98
8/4/2020 20:00 to 19:10 79.71 80.21 79.61 80.02 79.67 80.77
8/4/2020 19:00 to 18:10 79.57 78.38 78.36 76.90 75.10 75.18
8/4/2020 18:00 to 17:10 75.66 76.45 75.82 74.72 74.49 74.00
8/4/2020 17:00 to 16:10 73.87 75.14 77.90 79.02 76.99 78.24
8/4/2020 16:00 to 15:10 77.96 78.07 77.30 77.42 76.68 74.93
8/4/2020 15:00 to 14:10 75.14 75.08 75.12 76.09 78.86 76.72
8/4/2020 14:00 to 13:10 77.47 76.03 78.05 77.28 77.96 79.27
8/4/2020 13:00 to 12:10 80.38 80.81 80.44 80.00 79.38 78.88
8/4/2020 12:00 to 11:10 79.21 79.27 79.57 81.29 80.42 79.81
8/4/2020 11:00 to 10:10 77.57 78.40 79.11 80.58 81.77 80.67
8/4/2020 10:00 to 9:10 80.58 79.17 79.42 78.34 78.36 79.88
8/4/2020 09:00 to 8:10 79.61 78.44 77.51 76.63 77.57 79.81
8/4/2020 08:00 to 7:10 80.06 79.44 79.42 78.36 77.80 77.99
8/4/2020 07:00 to 6:10 78.92 79.17 79.46 80.06 79.65 79.71
8/4/2020 06:00 to 5:10 79.92 79.88 78.98 77.47 77.76 78.19
8/4/2020 05:00 to 4:10 78.63 78.53 77.40 78.32 79.61 79.81
8/4/2020 04:00 to 3:10 79.13 77.84 76.88 76.14 76.68 75.41
8/4/2020 03:00 to 2:10 75.28 75.74 75.41 74.51 75.87 76.03
8/4/2020 02:00 to 1:10 77.32 77.78 77.53 77.09 76.90 76.16
8/4/2020 01:00 to 0:10 74.70 76.74 76.28 76.07 74.35 74.04
8/4/2020 00:00 to 23:10 73.48 75.08 76.28 76.99 77.05 77.22
8/3/2020 23:00 to 22:10 78.24 79.07 78.44 78.71 77.40 77.72
8/3/2020 22:00 to 21:10 78.09 78.86 78.84 79.59 79.21 77.96
8/3/2020 21:00 to 20:10 77.59 76.88 76.26 76.07 76.49 76.16
8/3/2020 20:00 to 19:10 76.09 75.93 76.03 76.09 77.22 78.80
8/3/2020 19:00 to 18:10 79.94 79.92 79.92 81.14 83.81 83.51
8/3/2020 18:00 to 17:10 84.39 82.06 81.60 80.81 79.90 78.82
8/3/2020 17:00 to 16:10 78.55 78.11 78.11 78.71 78.40 77.69
8/3/2020 16:00 to 15:10 77.86 78.09 78.46 78.26 77.49 77.47
8/3/2020 15:00 to 14:10 74.91 74.10 73.87 76.39 77.32 78.21
8/3/2020 14:00 to 13:10 77.38 78.94 78.44 78.51 79.15 79.25
8/3/2020 13:00 to 12:10 78.73 77.45 75.33 77.42 79.15 79.69
8/3/2020 12:00 to 11:10 78.40 78.55 78.73 79.75 81.27 82.41
8/3/2020 11:00 to 10:10 82.37 82.64 82.39 81.56 81.50 80.29
8/3/2020 10:00 to 9:10 79.48 78.61 78.11 76.70 76.68 78.01
8/3/2020 09:00 to 8:10 78.90 78.96 78.71 79.00 79.17 78.88
8/3/2020 08:00 to 7:10 78.61 79.00 78.28 78.44 77.88 77.80
8/3/2020 07:00 to 6:10 77.94 76.99 77.86 77.36 78.15 79.09
8/3/2020 06:00 to 5:10 79.36 78.75 78.05 79.34 79.40 78.57
8/3/2020 05:00 to 4:10 77.88 78.75 77.82 76.34 77.01 77.96
8/3/2020 04:00 to 3:10 78.19 79.30 80.17 78.86 77.99 77.65
8/3/2020 03:00 to 2:10 77.36 78.05 77.90 77.30 77.84 77.38
8/3/2020 02:00 to 1:10 79.61 79.61 77.20 76.12 77.78 78.92
8/3/2020 01:00 to 0:10 79.19 78.84 78.09 77.24 76.55 77.05
8/3/2020 00:00 to 23:10 78.21 78.30 78.73 77.69 77.92 77.63
8/2/2020 23:00 to 22:10 77.32 78.32 77.03 74.91 75.51 76.07
8/2/2020 22:00 to 21:10 77.26 77.63 77.30 78.75 78.67 78.51
8/2/2020 21:00 to 20:10 78.92 78.88 78.84 79.15 81.25 80.98
8/2/2020 20:00 to 19:10 80.90 79.67 77.15 76.59 77.36 78.17
8/2/2020 19:00 to 18:10 79.69 80.11 79.05 78.17 77.72 77.69
8/2/2020 18:00 to 17:10 77.86 78.09 78.61 79.07 79.30 78.53
8/2/2020 17:00 to 16:10 78.40 77.24 75.78 75.24 74.66 74.41
8/2/2020 16:00 to 15:10 74.99 74.62 73.25 73.87 73.89 73.70
8/2/2020 15:00 to 14:10 74.93 73.73 73.12 74.06 74.41 75.06
8/2/2020 14:00 to 13:10 74.85 74.39 74.93 76.12 75.49 76.39
8/2/2020 13:00 to 12:10 76.90 76.28 77.36 77.26 76.01 74.72
8/2/2020 12:00 to 11:10 74.00 74.29 74.33 73.95 73.16 73.27
8/2/2020 11:00 to 10:10 74.68 74.54 74.04 74.37 72.19 73.83
8/2/2020 10:00 to 9:10 72.58 73.43 75.47 73.08 74.08 76.01
8/2/2020 09:00 to 8:10 76.12 77.09 78.61 78.98 79.98 80.23
8/2/2020 08:00 to 7:10 77.72 77.26 76.95 76.61 75.33 75.39
8/2/2020 07:00 to 6:10 75.97 75.87 77.07 78.48 77.45 76.59
8/2/2020 06:00 to 5:10 77.28 77.20 76.30 77.74 78.01 76.16
8/2/2020 05:00 to 4:10 75.72 77.22 77.88 79.38 78.61 79.71
8/2/2020 04:00 to 3:10 79.02 77.59 77.53 76.90 77.20 77.67
8/2/2020 03:00 to 2:10 76.20 76.05 76.03 74.83 75.39 74.60
8/2/2020 02:00 to 1:10 75.26 75.06 75.06 75.24 75.70 74.60
8/2/2020 01:00 to 0:10 74.54 73.62 72.40 74.06 74.10 72.33
8/2/2020 00:00 to 23:10 75.03 77.53 76.57 76.55 75.30 75.24
8/1/2020 23:00 to 22:10 75.93 77.61 78.46 77.96 76.41 78.05
8/1/2020 22:00 to 21:10 77.72 77.78 77.01 76.99 76.88 77.36
8/1/2020 21:00 to 20:10 74.45 72.33 72.96 71.83 71.71 72.54
8/1/2020 20:00 to 19:10 74.47 77.42 75.89 73.87 72.85 71.13
8/1/2020 19:00 to 18:10 71.69 72.17 73.68 73.85 76.49 76.49
8/1/2020 18:00 to 17:10 75.35 74.81 74.20 72.89 70.69 71.23
8/1/2020 17:00 to 16:10 70.09 71.00 72.12 70.11 69.80 68.97
8/1/2020 16:00 to 15:10 68.36 69.38 73.04 72.17 73.70 74.43
8/1/2020 15:00 to 14:10 74.56 75.53 75.70 78.07 78.40 79.42
8/1/2020 14:00 to 13:10 77.28 74.18 73.08 71.27 70.73 71.96
8/1/2020 13:00 to 12:10 74.02 74.58 76.24 75.20 73.06 72.00
8/1/2020 12:00 to 11:10 74.58 78.59 80.56 83.78 88.19 89.69
8/1/2020 11:00 to 10:10 89.38 89.35 92.22 93.78 94.55 94.07
8/1/2020 10:00 to 9:10 93.45 92.37 90.62 88.42 85.57 84.57
8/1/2020 09:00 to 8:10 83.99 82.77 82.77 82.43 82.45 82.70
8/1/2020 08:00 to 7:10 82.20 80.79 79.23 77.94 78.40 78.03
8/1/2020 07:00 to 6:10 79.21 80.87 80.19 80.94 82.72 81.91
8/1/2020 06:00 to 5:10 81.35 80.19 79.84 79.65 78.90 77.65
8/1/2020 05:00 to 4:10 77.65 79.52 78.65 78.82 79.13 79.71
8/1/2020 04:00 to 3:10 78.17 78.28 80.06 81.02 81.54 80.48
8/1/2020 03:00 to 2:10 81.31 82.23 81.71 81.46 81.50 81.62
8/1/2020 02:00 to 1:10 81.02 80.96 79.07 79.63 79.25 78.63
8/1/2020 01:00 to 0:10 78.82 78.67 79.52 79.07 79.30 78.48
8/1/2020 00:00 to 23:10 78.30 77.74 78.32 79.05 79.73 79.79
7/31/2020 23:00 to 22:10 80.23 81.02 79.67 78.80 78.38 78.13
7/31/2020 22:00 to 21:10 77.53 78.19 77.80 77.47 77.49 77.24
7/31/2020 21:00 to 20:10 76.66 76.43 76.03 76.53 76.18 76.61
7/31/2020 20:00 to 19:10 75.51 74.85 74.43 74.76 74.60 76.47
7/31/2020 19:00 to 18:10 75.68 76.22 76.93 78.44 77.69 77.32
7/31/2020 18:00 to 17:10 78.80 79.13 77.99 76.18 75.60 74.45
7/31/2020 17:00 to 16:10 74.41 75.41 76.57 77.78 77.38 77.88
7/31/2020 16:00 to 15:10 78.96 78.32 78.05 78.46 79.25 78.92
7/31/2020 15:00 to 14:10 78.82 78.15 78.46 78.69 79.09 79.19
7/31/2020 14:00 to 13:10 80.69 83.33 87.13 90.68 80.31 80.96
7/31/2020 13:00 to 12:10 79.40 78.03 76.76 74.99 77.82 79.71
7/31/2020 12:00 to 11:10 80.13 80.67 80.71 80.79 82.85 85.57
7/31/2020 11:00 to 10:10 82.20 80.33 79.32 79.77 78.98 78.71
7/31/2020 10:00 to 9:10 76.28 76.39 75.93 77.65 76.82 78.09
7/31/2020 09:00 to 8:10 79.32 79.21 79.46 77.90 77.40 77.03
7/31/2020 08:00 to 7:10 77.76 77.86 77.22 77.15 77.18 78.92
7/31/2020 07:00 to 6:10 79.19 80.83 80.92 81.35 81.58 80.65
7/31/2020 06:00 to 5:10 80.83 81.35 80.21 81.23 81.62 80.92
7/31/2020 05:00 to 4:10 83.39 82.39 81.50 82.60 83.04 82.47
7/31/2020 04:00 to 3:10 82.62 82.79 83.31 83.85 84.18 83.62
7/31/2020 03:00 to 2:10 83.49 83.08 82.33 82.43 82.60 82.54
7/31/2020 02:00 to 1:10 83.81 83.66 82.50 82.08 82.10 81.14
7/31/2020 01:00 to 0:10 80.25 80.13 80.94 80.90 81.41 82.60